Terminal Aerodrome Forecast
Issued by NWS

Home | Current Version | Previous Version | Text Only | Print | Product List | Glossary Off
Versions: 1 2 3 4 5 6 7 8 9 10 11 12 13 14

473
FTUS43 KABR 291733
TAFMBG
TAF
KMBG 291733Z 2918/3018 04008KT P6SM SKC
     FM300500 05009KT P6SM OVC100
     FM301100 05015G25KT P6SM OVC080=

USA.gov is the U.S. government's official web portal to all federal, state and local government web resources and services.